sensor_id;sensor_type;location;lat;lon;timestamp;temperature;humidity
25332;DHT22;13284;52.748;13.452;2023-05-21T00:01:00;14.90;99.90
25332;DHT22;13284;52.748;13.452;2023-05-21T00:03:27;14.90;99.90
25332;DHT22;13284;52.748;13.452;2023-05-21T00:05:54;14.90;99.90
25332;DHT22;13284;52.748;13.452;2023-05-21T00:08:20;14.90;99.90
25332;DHT22;13284;52.748;13.452;2023-05-21T00:10:46;14.90;99.90
25332;DHT22;13284;52.748;13.452;2023-05-21T00:13:11;14.90;99.90
25332;DHT22;13284;52.748;13.452;2023-05-21T00:15:37;14.90;99.90
25332;DHT22;13284;52.748;13.452;2023-05-21T00:18:03;15.00;99.90
25332;DHT22;13284;52.748;13.452;2023-05-21T00:20:32;14.90;99.90
25332;DHT22;13284;52.748;13.452;2023-05-21T00:22:58;14.90;99.90
25332;DHT22;13284;52.748;13.452;2023-05-21T00:25:27;14.80;99.90
25332;DHT22;13284;52.748;13.452;2023-05-21T00:27:53;14.80;99.90
25332;DHT22;13284;52.748;13.452;2023-05-21T00:30:19;14.80;99.90
25332;DHT22;13284;52.748;13.452;2023-05-21T00:32:44;14.90;99.90
25332;DHT22;13284;52.748;13.452;2023-05-21T00:35:10;14.80;99.90
25332;DHT22;13284;52.748;13.452;2023-05-21T00:37:36;14.70;99.90
25332;DHT22;13284;52.748;13.452;2023-05-21T00:40:03;14.70;99.90
25332;DHT22;13284;52.748;13.452;2023-05-21T00:42:32;14.70;99.90
25332;DHT22;13284;52.748;13.452;2023-05-21T00:44:58;14.70;99.90
25332;DHT22;13284;52.748;13.452;2023-05-21T00:47:24;14.60;99.90
25332;DHT22;13284;52.748;13.452;2023-05-21T00:49:51;14.60;99.90
25332;DHT22;13284;52.748;13.452;2023-05-21T00:52:17;14.60;99.90
25332;DHT22;13284;52.748;13.452;2023-05-21T00:54:48;14.60;99.90
25332;DHT22;13284;52.748;13.452;2023-05-21T00:57:16;14.60;99.90
25332;DHT22;13284;52.748;13.452;2023-05-21T00:59:45;14.50;99.90
25332;DHT22;13284;52.748;13.452;2023-05-21T01:02:11;14.50;99.90
25332;DHT22;13284;52.748;13.452;2023-05-21T01:04:38;14.50;99.90
25332;DHT22;13284;52.748;13.452;2023-05-21T01:07:04;14.60;99.90
25332;DHT22;13284;52.748;13.452;2023-05-21T01:09:30;14.40;99.90
25332;DHT22;13284;52.748;13.452;2023-05-21T01:11:57;14.40;99.90
25332;DHT22;13284;52.748;13.452;2023-05-21T01:14:25;14.40;99.90
25332;DHT22;13284;52.748;13.452;2023-05-21T01:16:51;14.40;99.90
25332;DHT22;13284;52.748;13.452;2023-05-21T01:19:19;14.40;99.90
25332;DHT22;13284;52.748;13.452;2023-05-21T01:21:52;14.30;99.90
25332;DHT22;13284;52.748;13.452;2023-05-21T01:24:20;14.30;99.90
25332;DHT22;13284;52.748;13.452;2023-05-21T01:26:46;14.30;99.90
25332;DHT22;13284;52.748;13.452;2023-05-21T01:29:13;14.20;99.90
25332;DHT22;13284;52.748;13.452;2023-05-21T01:32:14;14.30;99.90
25332;DHT22;13284;52.748;13.452;2023-05-21T01:35:03;14.20;99.90
25332;DHT22;13284;52.748;13.452;2023-05-21T01:37:50;14.10;99.90
25332;DHT22;13284;52.748;13.452;2023-05-21T01:40:27;14.10;99.90
25332;DHT22;13284;52.748;13.452;2023-05-21T01:42:54;14.10;99.90
25332;DHT22;13284;52.748;13.452;2023-05-21T01:45:24;14.10;99.90
25332;DHT22;13284;52.748;13.452;2023-05-21T01:47:53;14.10;99.90
25332;DHT22;13284;52.748;13.452;2023-05-21T01:50:21;14.10;99.90
25332;DHT22;13284;52.748;13.452;2023-05-21T01:52:49;14.00;99.90
25332;DHT22;13284;52.748;13.452;2023-05-21T01:55:16;13.90;99.90
25332;DHT22;13284;52.748;13.452;2023-05-21T01:57:41;13.90;99.90
25332;DHT22;13284;52.748;13.452;2023-05-21T02:00:07;13.90;99.90
25332;DHT22;13284;52.748;13.452;2023-05-21T02:02:33;13.90;99.90
25332;DHT22;13284;52.748;13.452;2023-05-21T02:04:59;13.90;99.90
25332;DHT22;13284;52.748;13.452;2023-05-21T02:07:24;13.80;99.90
25332;DHT22;13284;52.748;13.452;2023-05-21T02:09:55;13.80;99.90
25332;DHT22;13284;52.748;13.452;2023-05-21T02:12:21;13.80;99.90
25332;DHT22;13284;52.748;13.452;2023-05-21T02:14:47;13.80;99.90
25332;DHT22;13284;52.748;13.452;2023-05-21T02:17:14;13.80;99.90
25332;DHT22;13284;52.748;13.452;2023-05-21T02:19:41;13.70;99.90
25332;DHT22;13284;52.748;13.452;2023-05-21T02:22:09;13.70;99.90
25332;DHT22;13284;52.748;13.452;2023-05-21T02:24:40;13.70;99.90
25332;DHT22;13284;52.748;13.452;2023-05-21T02:27:07;13.70;99.90
25332;DHT22;13284;52.748;13.452;2023-05-21T02:29:35;13.60;99.90
25332;DHT22;13284;52.748;13.452;2023-05-21T02:32:00;13.70;99.90
25332;DHT22;13284;52.748;13.452;2023-05-21T02:34:26;13.70;99.90
25332;DHT22;13284;52.748;13.452;2023-05-21T02:36:55;13.70;99.90
25332;DHT22;13284;52.748;13.452;2023-05-21T02:39:20;13.70;99.90
25332;DHT22;13284;52.748;13.452;2023-05-21T02:41:46;13.70;99.90
25332;DHT22;13284;52.748;13.452;2023-05-21T02:44:12;13.70;99.90
25332;DHT22;13284;52.748;13.452;2023-05-21T02:46:38;13.70;99.90
25332;DHT22;13284;52.748;13.452;2023-05-21T02:49:03;13.60;99.90
25332;DHT22;13284;52.748;13.452;2023-05-21T02:51:31;13.60;99.90
25332;DHT22;13284;52.748;13.452;2023-05-21T02:53:57;13.60;99.90
25332;DHT22;13284;52.748;13.452;2023-05-21T02:56:22;13.60;99.90
25332;DHT22;13284;52.748;13.452;2023-05-21T02:58:49;13.70;99.90
25332;DHT22;13284;52.748;13.452;2023-05-21T03:01:16;13.60;99.90
25332;DHT22;13284;52.748;13.452;2023-05-21T03:03:41;13.60;99.90
25332;DHT22;13284;52.748;13.452;2023-05-21T03:06:07;13.60;99.90
25332;DHT22;13284;52.748;13.452;2023-05-21T03:08:34;13.70;99.90
25332;DHT22;13284;52.748;13.452;2023-05-21T03:11:00;13.60;99.90
25332;DHT22;13284;52.748;13.452;2023-05-21T03:13:26;13.60;99.90
25332;DHT22;13284;52.748;13.452;2023-05-21T03:15:51;13.70;99.90
25332;DHT22;13284;52.748;13.452;2023-05-21T03:18:21;13.70;99.90
25332;DHT22;13284;52.748;13.452;2023-05-21T03:20:46;13.70;99.90
25332;DHT22;13284;52.748;13.452;2023-05-21T03:23:12;13.70;99.90
25332;DHT22;13284;52.748;13.452;2023-05-21T03:25:38;13.80;99.90
25332;DHT22;13284;52.748;13.452;2023-05-21T03:28:04;13.80;99.90
25332;DHT22;13284;52.748;13.452;2023-05-21T03:30:31;13.80;99.90
25332;DHT22;13284;52.748;13.452;2023-05-21T03:32:59;13.80;99.90
25332;DHT22;13284;52.748;13.452;2023-05-21T03:35:24;13.80;99.90
25332;DHT22;13284;52.748;13.452;2023-05-21T03:37:50;13.80;99.90
25332;DHT22;13284;52.748;13.452;2023-05-21T03:40:16;13.90;99.90
25332;DHT22;13284;52.748;13.452;2023-05-21T03:42:41;13.80;99.90
25332;DHT22;13284;52.748;13.452;2023-05-21T03:45:07;14.00;99.90
25332;DHT22;13284;52.748;13.452;2023-05-21T03:47:36;13.90;99.90
25332;DHT22;13284;52.748;13.452;2023-05-21T03:50:02;14.00;99.90
25332;DHT22;13284;52.748;13.452;2023-05-21T03:52:27;14.00;99.90
25332;DHT22;13284;52.748;13.452;2023-05-21T03:54:53;14.00;99.90
25332;DHT22;13284;52.748;13.452;2023-05-21T03:57:18;14.10;99.90
25332;DHT22;13284;52.748;13.452;2023-05-21T03:59:44;14.10;99.90
25332;DHT22;13284;52.748;13.452;2023-05-21T04:02:09;14.10;99.90
25332;DHT22;13284;52.748;13.452;2023-05-21T04:04:38;14.10;99.90
25332;DHT22;13284;52.748;13.452;2023-05-21T04:07:04;14.20;99.90
25332;DHT22;13284;52.748;13.452;2023-05-21T04:09:33;14.20;99.90
25332;DHT22;13284;52.748;13.452;2023-05-21T04:11:58;14.10;99.90
25332;DHT22;13284;52.748;13.452;2023-05-21T04:14:24;14.20;99.90
25332;DHT22;13284;52.748;13.452;2023-05-21T04:16:49;14.20;99.90
25332;DHT22;13284;52.748;13.452;2023-05-21T04:19:15;14.20;99.90
25332;DHT22;13284;52.748;13.452;2023-05-21T04:21:40;14.20;99.90
25332;DHT22;13284;52.748;13.452;2023-05-21T04:24:09;14.20;99.90
25332;DHT22;13284;52.748;13.452;2023-05-21T04:26:35;14.20;99.90
25332;DHT22;13284;52.748;13.452;2023-05-21T04:29:00;14.30;99.90
25332;DHT22;13284;52.748;13.452;2023-05-21T04:31:32;14.30;99.90
25332;DHT22;13284;52.748;13.452;2023-05-21T04:33:57;14.40;99.90
25332;DHT22;13284;52.748;13.452;2023-05-21T04:36:23;14.50;99.90
25332;DHT22;13284;52.748;13.452;2023-05-21T04:38:49;14.60;99.90
25332;DHT22;13284;52.748;13.452;2023-05-21T04:41:15;14.70;99.90
25332;DHT22;13284;52.748;13.452;2023-05-21T04:43:43;14.80;99.90
25332;DHT22;13284;52.748;13.452;2023-05-21T04:46:08;14.90;99.90
25332;DHT22;13284;52.748;13.452;2023-05-21T04:48:34;15.10;99.90
25332;DHT22;13284;52.748;13.452;2023-05-21T04:50:59;15.20;99.90
25332;DHT22;13284;52.748;13.452;2023-05-21T04:53:25;15.30;99.90
25332;DHT22;13284;52.748;13.452;2023-05-21T04:55:51;15.50;99.90
25332;DHT22;13284;52.748;13.452;2023-05-21T04:58:16;15.50;99.90
25332;DHT22;13284;52.748;13.452;2023-05-21T05:00:43;15.50;99.90
25332;DHT22;13284;52.748;13.452;2023-05-21T05:03:11;15.70;99.90
25332;DHT22;13284;52.748;13.452;2023-05-21T05:05:37;15.80;99.90
25332;DHT22;13284;52.748;13.452;2023-05-21T05:08:03;15.90;99.90
25332;DHT22;13284;52.748;13.452;2023-05-21T05:10:28;16.00;99.90
25332;DHT22;13284;52.748;13.452;2023-05-21T05:12:54;16.00;99.90
25332;DHT22;13284;52.748;13.452;2023-05-21T05:15:20;16.10;99.90
25332;DHT22;13284;52.748;13.452;2023-05-21T05:17:45;16.20;99.90
25332;DHT22;13284;52.748;13.452;2023-05-21T05:20:14;16.30;99.90
25332;DHT22;13284;52.748;13.452;2023-05-21T05:22:40;16.40;99.90
25332;DHT22;13284;52.748;13.452;2023-05-21T05:25:06;16.70;99.90
25332;DHT22;13284;52.748;13.452;2023-05-21T05:27:32;16.90;99.90
25332;DHT22;13284;52.748;13.452;2023-05-21T05:29:57;17.00;99.90
25332;DHT22;13284;52.748;13.452;2023-05-21T05:32:23;17.20;99.90
25332;DHT22;13284;52.748;13.452;2023-05-21T05:34:48;17.30;99.90
25332;DHT22;13284;52.748;13.452;2023-05-21T05:37:14;17.40;99.90
25332;DHT22;13284;52.748;13.452;2023-05-21T05:39:40;17.60;99.90
25332;DHT22;13284;52.748;13.452;2023-05-21T05:42:05;17.70;99.90
25332;DHT22;13284;52.748;13.452;2023-05-21T05:44:31;17.80;99.90
25332;DHT22;13284;52.748;13.452;2023-05-21T05:46:56;18.00;99.90
25332;DHT22;13284;52.748;13.452;2023-05-21T05:49:22;18.20;99.90
25332;DHT22;13284;52.748;13.452;2023-05-21T05:51:47;18.20;99.90
25332;DHT22;13284;52.748;13.452;2023-05-21T05:54:13;18.30;99.90
25332;DHT22;13284;52.748;13.452;2023-05-21T05:56:38;18.50;99.90
25332;DHT22;13284;52.748;13.452;2023-05-21T05:59:04;18.50;99.90
25332;DHT22;13284;52.748;13.452;2023-05-21T06:01:29;18.50;99.90
25332;DHT22;13284;52.748;13.452;2023-05-21T06:03:56;18.50;99.90
25332;DHT22;13284;52.748;13.452;2023-05-21T06:06:27;18.40;99.90
25332;DHT22;13284;52.748;13.452;2023-05-21T06:09:00;18.50;99.90
25332;DHT22;13284;52.748;13.452;2023-05-21T06:11:28;18.40;99.90
25332;DHT22;13284;52.748;13.452;2023-05-21T06:13:57;18.40;99.90
25332;DHT22;13284;52.748;13.452;2023-05-21T06:16:25;18.50;99.90
25332;DHT22;13284;52.748;13.452;2023-05-21T06:18:50;18.60;99.90
25332;DHT22;13284;52.748;13.452;2023-05-21T06:21:16;18.70;99.90
25332;DHT22;13284;52.748;13.452;2023-05-21T06:23:41;18.90;99.90
25332;DHT22;13284;52.748;13.452;2023-05-21T06:26:07;19.20;99.90
25332;DHT22;13284;52.748;13.452;2023-05-21T06:28:32;19.40;99.90
25332;DHT22;13284;52.748;13.452;2023-05-21T06:31:01;19.50;99.90
25332;DHT22;13284;52.748;13.452;2023-05-21T06:33:26;19.60;99.90
25332;DHT22;13284;52.748;13.452;2023-05-21T06:35:52;19.70;99.90
25332;DHT22;13284;52.748;13.452;2023-05-21T06:38:17;19.80;99.90
25332;DHT22;13284;52.748;13.452;2023-05-21T06:40:45;19.90;99.90
25332;DHT22;13284;52.748;13.452;2023-05-21T06:43:12;20.10;99.90
25332;DHT22;13284;52.748;13.452;2023-05-21T06:45:38;20.20;99.90
25332;DHT22;13284;52.748;13.452;2023-05-21T06:48:04;20.50;99.90
25332;DHT22;13284;52.748;13.452;2023-05-21T06:50:30;20.40;99.90
25332;DHT22;13284;52.748;13.452;2023-05-21T06:52:55;20.50;99.90
25332;DHT22;13284;52.748;13.452;2023-05-21T06:55:21;20.60;99.90
25332;DHT22;13284;52.748;13.452;2023-05-21T06:57:46;20.60;99.90
25332;DHT22;13284;52.748;13.452;2023-05-21T07:00:12;20.60;99.90
25332;DHT22;13284;52.748;13.452;2023-05-21T07:02:38;20.60;99.90
25332;DHT22;13284;52.748;13.452;2023-05-21T07:05:04;20.60;99.90
25332;DHT22;13284;52.748;13.452;2023-05-21T07:07:29;20.80;99.90
25332;DHT22;13284;52.748;13.452;2023-05-21T07:09:55;20.80;99.90
25332;DHT22;13284;52.748;13.452;2023-05-21T07:12:21;20.90;99.90
25332;DHT22;13284;52.748;13.452;2023-05-21T07:14:46;21.00;99.90
25332;DHT22;13284;52.748;13.452;2023-05-21T07:17:15;21.10;99.90
25332;DHT22;13284;52.748;13.452;2023-05-21T07:19:40;21.30;99.90
25332;DHT22;13284;52.748;13.452;2023-05-21T07:22:06;21.30;99.90
25332;DHT22;13284;52.748;13.452;2023-05-21T07:24:31;21.30;99.90
25332;DHT22;13284;52.748;13.452;2023-05-21T07:26:57;21.40;99.90
25332;DHT22;13284;52.748;13.452;2023-05-21T07:29:22;21.40;99.90
25332;DHT22;13284;52.748;13.452;2023-05-21T07:31:48;21.50;99.90
25332;DHT22;13284;52.748;13.452;2023-05-21T07:34:13;21.40;99.90
25332;DHT22;13284;52.748;13.452;2023-05-21T07:36:39;21.50;99.90
25332;DHT22;13284;52.748;13.452;2023-05-21T07:39:04;21.60;99.90
25332;DHT22;13284;52.748;13.452;2023-05-21T07:41:30;21.60;99.90
25332;DHT22;13284;52.748;13.452;2023-05-21T07:43:59;21.70;99.90
25332;DHT22;13284;52.748;13.452;2023-05-21T07:46:28;21.80;99.90
25332;DHT22;13284;52.748;13.452;2023-05-21T07:48:53;22.00;99.90
25332;DHT22;13284;52.748;13.452;2023-05-21T07:51:19;22.10;99.90
25332;DHT22;13284;52.748;13.452;2023-05-21T07:53:51;22.30;99.90
25332;DHT22;13284;52.748;13.452;2023-05-21T07:56:17;22.60;99.90
25332;DHT22;13284;52.748;13.452;2023-05-21T07:58:42;22.80;99.90
25332;DHT22;13284;52.748;13.452;2023-05-21T08:01:10;23.00;99.90
25332;DHT22;13284;52.748;13.452;2023-05-21T08:03:36;23.30;99.90
25332;DHT22;13284;52.748;13.452;2023-05-21T08:06:02;23.50;99.90
25332;DHT22;13284;52.748;13.452;2023-05-21T08:08:30;23.80;99.90
25332;DHT22;13284;52.748;13.452;2023-05-21T08:10:56;23.90;99.90
25332;DHT22;13284;52.748;13.452;2023-05-21T08:13:22;24.00;99.90
25332;DHT22;13284;52.748;13.452;2023-05-21T08:15:48;23.70;99.90
25332;DHT22;13284;52.748;13.452;2023-05-21T08:18:13;23.80;99.90
25332;DHT22;13284;52.748;13.452;2023-05-21T08:20:39;23.80;99.90
25332;DHT22;13284;52.748;13.452;2023-05-21T08:23:06;23.60;99.90
25332;DHT22;13284;52.748;13.452;2023-05-21T08:25:31;23.50;99.90
25332;DHT22;13284;52.748;13.452;2023-05-21T08:27:57;23.60;99.90
25332;DHT22;13284;52.748;13.452;2023-05-21T08:30:25;23.70;99.90
25332;DHT22;13284;52.748;13.452;2023-05-21T08:32:51;23.50;99.90
25332;DHT22;13284;52.748;13.452;2023-05-21T08:35:16;23.70;99.90
25332;DHT22;13284;52.748;13.452;2023-05-21T08:37:42;24.10;99.90
25332;DHT22;13284;52.748;13.452;2023-05-21T08:40:09;24.20;99.90
25332;DHT22;13284;52.748;13.452;2023-05-21T08:42:41;24.70;99.90
25332;DHT22;13284;52.748;13.452;2023-05-21T08:45:11;25.00;99.90
25332;DHT22;13284;52.748;13.452;2023-05-21T08:47:40;25.40;99.90
25332;DHT22;13284;52.748;13.452;2023-05-21T08:50:11;26.10;99.90
25332;DHT22;13284;52.748;13.452;2023-05-21T08:52:36;26.60;99.90
25332;DHT22;13284;52.748;13.452;2023-05-21T08:55:06;26.80;99.90
25332;DHT22;13284;52.748;13.452;2023-05-21T08:57:32;26.60;99.90
25332;DHT22;13284;52.748;13.452;2023-05-21T08:59:58;26.80;99.90
25332;DHT22;13284;52.748;13.452;2023-05-21T09:02:23;27.40;99.90
25332;DHT22;13284;52.748;13.452;2023-05-21T09:04:51;27.00;99.90
25332;DHT22;13284;52.748;13.452;2023-05-21T09:07:24;27.20;99.90
25332;DHT22;13284;52.748;13.452;2023-05-21T09:10:07;27.50;99.90
25332;DHT22;13284;52.748;13.452;2023-05-21T09:12:36;27.80;99.90
25332;DHT22;13284;52.748;13.452;2023-05-21T09:15:02;28.20;99.90
25332;DHT22;13284;52.748;13.452;2023-05-21T09:17:28;28.20;99.90
25332;DHT22;13284;52.748;13.452;2023-05-21T09:20:08;28.90;99.90
25332;DHT22;13284;52.748;13.452;2023-05-21T09:22:39;29.30;99.90
25332;DHT22;13284;52.748;13.452;2023-05-21T09:25:06;28.80;99.90
25332;DHT22;13284;52.748;13.452;2023-05-21T09:27:33;28.80;99.90
25332;DHT22;13284;52.748;13.452;2023-05-21T09:29:59;28.70;99.90
25332;DHT22;13284;52.748;13.452;2023-05-21T09:32:24;28.10;99.90
25332;DHT22;13284;52.748;13.452;2023-05-21T09:34:50;28.00;99.90
25332;DHT22;13284;52.748;13.452;2023-05-21T09:37:15;28.00;99.90
25332;DHT22;13284;52.748;13.452;2023-05-21T09:39:41;27.80;99.90
25332;DHT22;13284;52.748;13.452;2023-05-21T09:42:07;28.20;99.90
25332;DHT22;13284;52.748;13.452;2023-05-21T09:44:34;27.70;99.90
25332;DHT22;13284;52.748;13.452;2023-05-21T09:47:01;27.20;99.90
25332;DHT22;13284;52.748;13.452;2023-05-21T09:49:26;27.30;99.90
25332;DHT22;13284;52.748;13.452;2023-05-21T09:51:58;27.10;99.90
25332;DHT22;13284;52.748;13.452;2023-05-21T09:54:25;27.10;99.90
25332;DHT22;13284;52.748;13.452;2023-05-21T09:56:55;27.30;99.90
25332;DHT22;13284;52.748;13.452;2023-05-21T09:59:20;27.20;99.90
25332;DHT22;13284;52.748;13.452;2023-05-21T10:01:50;27.40;99.90
25332;DHT22;13284;52.748;13.452;2023-05-21T10:04:17;27.40;99.90
25332;DHT22;13284;52.748;13.452;2023-05-21T10:06:43;27.50;99.90
25332;DHT22;13284;52.748;13.452;2023-05-21T10:09:13;27.80;99.90
25332;DHT22;13284;52.748;13.452;2023-05-21T10:11:42;27.70;99.90
25332;DHT22;13284;52.748;13.452;2023-05-21T10:14:19;27.90;99.90
25332;DHT22;13284;52.748;13.452;2023-05-21T10:16:47;28.40;99.90
25332;DHT22;13284;52.748;13.452;2023-05-21T10:19:14;29.20;99.90
25332;DHT22;13284;52.748;13.452;2023-05-21T10:21:40;28.90;99.90
25332;DHT22;13284;52.748;13.452;2023-05-21T10:24:07;29.10;99.90
25332;DHT22;13284;52.748;13.452;2023-05-21T10:26:33;29.30;99.90
25332;DHT22;13284;52.748;13.452;2023-05-21T10:29:01;29.50;99.90
25332;DHT22;13284;52.748;13.452;2023-05-21T10:31:27;29.90;99.90
25332;DHT22;13284;52.748;13.452;2023-05-21T10:33:53;30.30;99.90
25332;DHT22;13284;52.748;13.452;2023-05-21T10:36:20;29.80;99.90
25332;DHT22;13284;52.748;13.452;2023-05-21T10:38:46;29.80;99.90
25332;DHT22;13284;52.748;13.452;2023-05-21T10:41:14;30.10;99.90
25332;DHT22;13284;52.748;13.452;2023-05-21T10:43:45;30.30;99.50
25332;DHT22;13284;52.748;13.452;2023-05-21T10:52:08;30.10;99.90
25332;DHT22;13284;52.748;13.452;2023-05-21T10:57:19;30.70;99.00
25332;DHT22;13284;52.748;13.452;2023-05-21T10:59:49;30.80;98.20
25332;DHT22;13284;52.748;13.452;2023-05-21T11:02:17;29.60;99.10
25332;DHT22;13284;52.748;13.452;2023-05-21T11:04:44;29.30;99.20
25332;DHT22;13284;52.748;13.452;2023-05-21T11:07:11;29.30;99.50
25332;DHT22;13284;52.748;13.452;2023-05-21T11:09:37;29.70;99.80
25332;DHT22;13284;52.748;13.452;2023-05-21T11:12:03;29.80;99.10
25332;DHT22;13284;52.748;13.452;2023-05-21T11:14:37;29.90;98.80
25332;DHT22;13284;52.748;13.452;2023-05-21T11:19:42;29.00;99.40
25332;DHT22;13284;52.748;13.452;2023-05-21T11:22:24;28.70;99.70
25332;DHT22;13284;52.748;13.452;2023-05-21T11:24:51;28.10;99.60
25332;DHT22;13284;52.748;13.452;2023-05-21T11:27:40;28.00;99.90
25332;DHT22;13284;52.748;13.452;2023-05-21T11:30:17;27.70;99.90
25332;DHT22;13284;52.748;13.452;2023-05-21T11:35:37;27.30;99.90
25332;DHT22;13284;52.748;13.452;2023-05-21T11:38:03;27.50;99.90
25332;DHT22;13284;52.748;13.452;2023-05-21T11:40:34;28.40;99.90
25332;DHT22;13284;52.748;13.452;2023-05-21T11:43:00;29.00;99.90
25332;DHT22;13284;52.748;13.452;2023-05-21T11:45:31;29.50;99.70
25332;DHT22;13284;52.748;13.452;2023-05-21T11:47:57;29.20;99.20
25332;DHT22;13284;52.748;13.452;2023-05-21T11:50:23;29.30;99.70
25332;DHT22;13284;52.748;13.452;2023-05-21T11:52:56;29.10;98.90
25332;DHT22;13284;52.748;13.452;2023-05-21T11:55:24;28.80;98.50
25332;DHT22;13284;52.748;13.452;2023-05-21T11:57:52;29.30;98.50
25332;DHT22;13284;52.748;13.452;2023-05-21T12:00:17;29.60;98.30
25332;DHT22;13284;52.748;13.452;2023-05-21T12:02:45;30.00;97.70
25332;DHT22;13284;52.748;13.452;2023-05-21T12:05:13;30.10;96.90
25332;DHT22;13284;52.748;13.452;2023-05-21T12:07:39;30.50;96.90
25332;DHT22;13284;52.748;13.452;2023-05-21T12:10:05;30.90;96.20
25332;DHT22;13284;52.748;13.452;2023-05-21T12:12:31;30.30;96.20
25332;DHT22;13284;52.748;13.452;2023-05-21T12:14:57;30.70;96.00
25332;DHT22;13284;52.748;13.452;2023-05-21T12:17:26;30.90;95.30
25332;DHT22;13284;52.748;13.452;2023-05-21T12:19:55;31.00;95.60
25332;DHT22;13284;52.748;13.452;2023-05-21T12:22:24;30.00;95.40
25332;DHT22;13284;52.748;13.452;2023-05-21T12:24:50;30.20;95.30
25332;DHT22;13284;52.748;13.452;2023-05-21T12:27:18;30.10;95.00
25332;DHT22;13284;52.748;13.452;2023-05-21T12:29:46;30.10;95.30
25332;DHT22;13284;52.748;13.452;2023-05-21T12:32:14;30.00;95.30
25332;DHT22;13284;52.748;13.452;2023-05-21T12:37:15;29.80;95.50
25332;DHT22;13284;52.748;13.452;2023-05-21T12:39:47;29.90;94.70
25332;DHT22;13284;52.748;13.452;2023-05-21T12:42:13;29.30;94.40
25332;DHT22;13284;52.748;13.452;2023-05-21T12:44:43;29.40;95.10
25332;DHT22;13284;52.748;13.452;2023-05-21T12:47:09;29.40;95.00
25332;DHT22;13284;52.748;13.452;2023-05-21T12:49:40;29.50;94.90
25332;DHT22;13284;52.748;13.452;2023-05-21T12:52:13;29.50;94.80
25332;DHT22;13284;52.748;13.452;2023-05-21T12:54:40;29.30;94.60
25332;DHT22;13284;52.748;13.452;2023-05-21T12:59:52;28.50;94.70
25332;DHT22;13284;52.748;13.452;2023-05-21T13:02:26;28.20;94.60
25332;DHT22;13284;52.748;13.452;2023-05-21T13:04:57;28.50;94.70
25332;DHT22;13284;52.748;13.452;2023-05-21T13:07:24;28.80;94.60
25332;DHT22;13284;52.748;13.452;2023-05-21T13:09:57;29.70;95.70
25332;DHT22;13284;52.748;13.452;2023-05-21T13:12:40;29.60;94.00
25332;DHT22;13284;52.748;13.452;2023-05-21T13:15:06;29.60;93.90
25332;DHT22;13284;52.748;13.452;2023-05-21T13:17:33;30.10;93.90
25332;DHT22;13284;52.748;13.452;2023-05-21T13:22:59;29.70;93.20
25332;DHT22;13284;52.748;13.452;2023-05-21T13:25:25;29.50;93.00
25332;DHT22;13284;52.748;13.452;2023-05-21T13:27:55;29.40;93.70
25332;DHT22;13284;52.748;13.452;2023-05-21T13:30:21;29.20;92.90
25332;DHT22;13284;52.748;13.452;2023-05-21T13:32:47;29.10;93.50
25332;DHT22;13284;52.748;13.452;2023-05-21T13:35:14;29.10;93.40
25332;DHT22;13284;52.748;13.452;2023-05-21T13:37:42;29.40;93.60
25332;DHT22;13284;52.748;13.452;2023-05-21T13:40:09;29.10;93.70
25332;DHT22;13284;52.748;13.452;2023-05-21T13:42:41;29.50;93.40
25332;DHT22;13284;52.748;13.452;2023-05-21T13:45:09;29.20;93.40
25332;DHT22;13284;52.748;13.452;2023-05-21T13:47:35;28.90;92.90
25332;DHT22;13284;52.748;13.452;2023-05-21T13:50:00;28.90;94.20
25332;DHT22;13284;52.748;13.452;2023-05-21T13:52:26;29.10;93.20
25332;DHT22;13284;52.748;13.452;2023-05-21T13:54:54;28.70;93.10
25332;DHT22;13284;52.748;13.452;2023-05-21T13:57:20;28.40;93.00
25332;DHT22;13284;52.748;13.452;2023-05-21T13:59:46;28.50;93.00
25332;DHT22;13284;52.748;13.452;2023-05-21T14:02:11;28.60;93.50
25332;DHT22;13284;52.748;13.452;2023-05-21T14:04:37;28.20;93.00
25332;DHT22;13284;52.748;13.452;2023-05-21T14:07:03;28.10;93.00
25332;DHT22;13284;52.748;13.452;2023-05-21T14:09:29;28.00;92.90
25332;DHT22;13284;52.748;13.452;2023-05-21T14:11:55;28.20;93.30
25332;DHT22;13284;52.748;13.452;2023-05-21T14:14:21;28.20;93.40
25332;DHT22;13284;52.748;13.452;2023-05-21T14:16:48;28.30;93.20
25332;DHT22;13284;52.748;13.452;2023-05-21T14:19:14;28.30;93.20
25332;DHT22;13284;52.748;13.452;2023-05-21T14:21:40;28.20;93.20
25332;DHT22;13284;52.748;13.452;2023-05-21T14:24:05;28.30;93.70
25332;DHT22;13284;52.748;13.452;2023-05-21T14:26:31;28.20;93.10
25332;DHT22;13284;52.748;13.452;2023-05-21T14:28:56;28.50;93.40
25332;DHT22;13284;52.748;13.452;2023-05-21T14:31:22;28.60;92.70
25332;DHT22;13284;52.748;13.452;2023-05-21T14:33:49;28.80;93.10
25332;DHT22;13284;52.748;13.452;2023-05-21T14:36:15;28.90;93.30
25332;DHT22;13284;52.748;13.452;2023-05-21T14:38:40;28.80;92.90
25332;DHT22;13284;52.748;13.452;2023-05-21T14:41:06;28.80;92.80
25332;DHT22;13284;52.748;13.452;2023-05-21T14:43:32;28.60;92.50
25332;DHT22;13284;52.748;13.452;2023-05-21T14:45:58;28.70;92.60
25332;DHT22;13284;52.748;13.452;2023-05-21T14:48:23;28.70;92.50
25332;DHT22;13284;52.748;13.452;2023-05-21T14:50:49;28.60;92.20
25332;DHT22;13284;52.748;13.452;2023-05-21T14:53:16;28.40;92.30
25332;DHT22;13284;52.748;13.452;2023-05-21T14:55:42;28.40;92.60
25332;DHT22;13284;52.748;13.452;2023-05-21T14:58:08;28.60;92.60
25332;DHT22;13284;52.748;13.452;2023-05-21T15:00:34;28.30;92.20
25332;DHT22;13284;52.748;13.452;2023-05-21T15:03:01;28.60;92.50
25332;DHT22;13284;52.748;13.452;2023-05-21T15:05:27;28.60;92.70
25332;DHT22;13284;52.748;13.452;2023-05-21T15:07:53;28.60;92.70
25332;DHT22;13284;52.748;13.452;2023-05-21T15:10:23;28.40;92.60
25332;DHT22;13284;52.748;13.452;2023-05-21T15:12:50;28.20;92.30
25332;DHT22;13284;52.748;13.452;2023-05-21T15:15:19;28.30;92.20
25332;DHT22;13284;52.748;13.452;2023-05-21T15:17:46;28.40;92.50
25332;DHT22;13284;52.748;13.452;2023-05-21T15:20:11;28.50;93.40
25332;DHT22;13284;52.748;13.452;2023-05-21T15:22:37;28.40;92.80
25332;DHT22;13284;52.748;13.452;2023-05-21T15:25:03;28.20;92.40
25332;DHT22;13284;52.748;13.452;2023-05-21T15:27:29;28.10;92.20
25332;DHT22;13284;52.748;13.452;2023-05-21T15:29:54;28.00;92.80
25332;DHT22;13284;52.748;13.452;2023-05-21T15:32:20;28.00;92.70
25332;DHT22;13284;52.748;13.452;2023-05-21T15:34:49;27.90;93.10
25332;DHT22;13284;52.748;13.452;2023-05-21T15:37:14;27.80;92.80